createdAt,value
2023-04-12T00:01:52.099Z,14.00
2023-04-12T00:04:19.152Z,7.78
2023-04-12T00:06:48.538Z,9.18
2023-04-12T00:09:18.310Z,8.25
2023-04-12T00:11:45.054Z,5.70
2023-04-12T00:14:11.778Z,9.90
2023-04-12T00:16:38.975Z,7.32
2023-04-12T00:19:06.529Z,8.32
2023-04-12T00:21:33.247Z,8.02
2023-04-12T00:24:00.070Z,8.93
2023-04-12T00:26:26.788Z,8.15
2023-04-12T00:28:54.431Z,8.80
2023-04-12T00:31:21.130Z,7.40
2023-04-12T00:33:47.993Z,7.50
2023-04-12T00:36:14.755Z,9.18
2023-04-12T00:38:42.552Z,5.20
2023-04-12T00:41:09.319Z,10.73
2023-04-12T00:43:42.712Z,9.93
2023-04-12T00:46:12.577Z,6.82
2023-04-12T00:48:40.180Z,10.30
2023-04-12T00:51:07.619Z,7.82
2023-04-12T00:53:34.466Z,11.57
2023-04-12T00:56:03.548Z,9.07
2023-04-12T00:58:31.808Z,10.50
2023-04-12T01:00:59.061Z,16.55
2023-04-12T01:03:27.963Z,9.73
2023-04-12T01:06:14.166Z,6.85
2023-04-12T01:08:44.095Z,9.40
2023-04-12T01:11:26.982Z,10.85
2023-04-12T01:14:06.059Z,6.95
2023-04-12T01:16:44.395Z,10.40
2023-04-12T01:19:45.100Z,8.30
2023-04-12T01:22:53.553Z,9.98
2023-04-12T01:25:40.672Z,6.82
2023-04-12T01:28:10.678Z,12.35
2023-04-12T01:30:38.603Z,7.60
2023-04-12T01:33:07.459Z,6.40
2023-04-12T01:35:35.320Z,8.13
2023-04-12T01:38:03.437Z,9.20
2023-04-12T01:40:31.442Z,8.50
2023-04-12T01:43:09.173Z,8.95
2023-04-12T01:45:36.153Z,10.25
2023-04-12T01:48:09.706Z,10.73
2023-04-12T01:50:45.931Z,10.70
2023-04-12T01:53:23.448Z,6.68
2023-04-12T01:55:50.869Z,7.70
2023-04-12T01:58:21.522Z,8.50
2023-04-12T02:00:50.216Z,12.70
2023-04-12T02:03:20.476Z,16.58
2023-04-12T02:05:51.841Z,9.35
2023-04-12T02:08:20.853Z,9.73
2023-04-12T02:10:47.582Z,5.75
2023-04-12T02:13:18.240Z,7.90
2023-04-12T02:15:45.889Z,19.02
2023-04-12T02:18:13.928Z,25.90
2023-04-12T02:20:43.792Z,16.10
2023-04-12T02:23:10.533Z,14.27
2023-04-12T02:25:38.585Z,16.05
2023-04-12T02:28:06.740Z,16.33
2023-04-12T02:30:34.271Z,12.13
2023-04-12T02:33:02.357Z,12.15
2023-04-12T02:35:33.552Z,12.80
2023-04-12T02:38:08.626Z,12.27
2023-04-12T02:40:42.042Z,19.10
2023-04-12T02:43:12.647Z,16.63
2023-04-12T02:45:43.639Z,12.90
2023-04-12T02:48:11.391Z,8.30
2023-04-12T02:50:39.724Z,10.88
2023-04-12T02:53:16.124Z,12.88
2023-04-12T02:55:46.550Z,10.63
2023-04-12T02:58:14.724Z,13.77
2023-04-12T03:00:46.722Z,27.08
2023-04-12T03:03:17.918Z,22.30
2023-04-12T03:05:47.311Z,8.70
2023-04-12T03:08:16.558Z,14.73
2023-04-12T03:10:51.393Z,11.30
2023-04-12T03:13:18.367Z,10.93
2023-04-12T03:15:49.597Z,8.82
2023-04-12T03:18:21.131Z,11.73
2023-04-12T03:20:50.435Z,11.65
2023-04-12T03:23:17.546Z,9.88
2023-04-12T03:25:48.382Z,12.82
2023-04-12T03:28:34.688Z,12.50
2023-04-12T03:31:07.179Z,15.02
2023-04-12T03:33:45.659Z,9.95
2023-04-12T03:36:24.446Z,7.90
2023-04-12T03:39:08.868Z,10.90
2023-04-12T03:41:38.068Z,9.15
2023-04-12T03:44:05.383Z,8.07
2023-04-12T03:46:34.492Z,8.77
2023-04-12T03:49:05.672Z,7.57
2023-04-12T03:51:34.147Z,10.63
2023-04-12T03:54:04.375Z,12.40
2023-04-12T03:56:40.523Z,11.73
2023-04-12T03:59:14.846Z,12.60
2023-04-12T04:01:44.320Z,8.93
2023-04-12T04:04:11.425Z,11.73
2023-04-12T04:06:38.846Z,12.23
2023-04-12T04:09:06.294Z,16.23
2023-04-12T04:11:35.726Z,15.80
2023-04-12T04:14:07.301Z,10.27
2023-04-12T04:16:34.794Z,16.65
2023-04-12T04:19:03.802Z,15.85
2023-04-12T04:21:32.158Z,14.18
2023-04-12T04:24:01.204Z,8.20
2023-04-12T04:26:34.931Z,11.23
2023-04-12T04:29:11.839Z,10.60
2023-04-12T04:31:39.819Z,11.75
2023-04-12T04:34:09.453Z,10.50
2023-04-12T04:36:41.937Z,8.63
2023-04-12T04:39:09.269Z,12.98
2023-04-12T04:41:41.362Z,12.15
2023-04-12T04:46:50.292Z,17.00
2023-04-12T04:49:17.058Z,17.98
2023-04-12T04:51:44.015Z,13.63
2023-04-12T04:54:13.714Z,10.73
2023-04-12T04:56:42.142Z,11.38
2023-04-12T04:59:10.737Z,12.98
2023-04-12T05:01:37.789Z,11.07
2023-04-12T05:04:05.009Z,9.85
2023-04-12T05:06:31.920Z,13.07
2023-04-12T05:09:01.539Z,14.88
2023-04-12T05:11:30.183Z,13.48
2023-04-12T05:13:57.279Z,16.83
2023-04-12T05:16:24.724Z,11.40
2023-04-12T05:18:51.732Z,10.75
2023-04-12T05:21:18.880Z,7.63
2023-04-12T05:23:46.877Z,11.95
2023-04-12T05:26:13.984Z,15.52
2023-04-12T05:28:45.127Z,7.57
2023-04-12T05:31:12.507Z,12.93
2023-04-12T05:33:39.647Z,9.65
2023-04-12T05:36:07.063Z,12.02
2023-04-12T05:38:34.751Z,7.25
2023-04-12T05:41:05.864Z,7.97
2023-04-12T05:43:34.144Z,7.43
2023-04-12T05:46:02.071Z,9.95
2023-04-12T05:48:29.294Z,7.75
2023-04-12T05:50:58.803Z,8.50
2023-04-12T05:53:25.560Z,9.13
2023-04-12T05:55:54.275Z,8.48
2023-04-12T05:58:21.764Z,11.93
2023-04-12T06:00:54.252Z,8.55
2023-04-12T06:03:23.873Z,11.38
2023-04-12T06:05:52.590Z,9.48
2023-04-12T06:08:19.552Z,6.32
2023-04-12T06:10:46.352Z,6.72
2023-04-12T06:13:13.410Z,9.60
2023-04-12T06:15:42.548Z,7.60
2023-04-12T06:18:09.858Z,7.72
2023-04-12T06:20:40.052Z,6.10
2023-04-12T06:23:06.915Z,17.92
2023-04-12T06:25:34.877Z,11.30
2023-04-12T06:28:02.094Z,9.13
2023-04-12T06:30:29.742Z,15.43
2023-04-12T06:32:57.013Z,8.00
2023-04-12T06:35:24.085Z,5.25
2023-04-12T06:37:50.882Z,11.50
2023-04-12T06:40:17.740Z,12.32
2023-04-12T06:42:44.492Z,7.20
2023-04-12T06:45:11.435Z,4.47
2023-04-12T06:47:38.182Z,7.38
2023-04-12T06:50:07.004Z,4.38
2023-04-12T06:52:33.749Z,6.38
2023-04-12T06:55:00.714Z,11.02
2023-04-12T06:57:27.450Z,5.97
2023-04-12T06:59:54.116Z,7.35
2023-04-12T07:02:21.117Z,6.57
2023-04-12T07:04:52.094Z,8.38
2023-04-12T07:07:20.733Z,9.52
2023-04-12T07:09:52.214Z,10.90
2023-04-12T07:12:18.930Z,14.73
2023-04-12T07:14:45.678Z,8.05
2023-04-12T07:17:12.307Z,7.90
2023-04-12T07:19:39.445Z,8.15
2023-04-12T07:22:06.161Z,9.43
2023-04-12T07:24:32.816Z,9.40
2023-04-12T07:26:59.722Z,7.60
2023-04-12T07:29:26.705Z,7.38
2023-04-12T07:31:53.374Z,8.50
2023-04-12T07:34:20.165Z,8.25
2023-04-12T07:36:47.009Z,6.07
2023-04-12T07:39:14.380Z,7.50
2023-04-12T07:41:46.538Z,7.25
2023-04-12T07:44:13.215Z,6.53
2023-04-12T07:46:41.717Z,12.02
2023-04-12T07:49:10.469Z,10.68
2023-04-12T07:51:37.588Z,6.40
2023-04-12T07:54:04.467Z,9.65
2023-04-12T07:56:34.249Z,11.77
2023-04-12T07:59:01.196Z,7.28
2023-04-12T08:01:30.973Z,6.15
2023-04-12T08:03:58.258Z,8.60
2023-04-12T08:06:28.328Z,10.57
2023-04-12T08:08:57.594Z,7.57
2023-04-12T08:11:24.293Z,8.35
2023-04-12T08:13:50.990Z,8.10
2023-04-12T08:16:17.699Z,8.75
2023-04-12T08:18:44.722Z,11.75
2023-04-12T08:21:11.676Z,7.00
2023-04-12T08:23:38.365Z,7.40
2023-04-12T08:26:05.460Z,9.57
2023-04-12T08:28:32.628Z,5.78
2023-04-12T08:31:00.201Z,7.55
2023-04-12T08:33:27.201Z,10.38
2023-04-12T08:35:54.275Z,9.10
2023-04-12T08:38:30.689Z,8.57
2023-04-12T08:41:07.981Z,10.30
2023-04-12T08:43:35.109Z,8.85
2023-04-12T08:46:02.318Z,14.73
2023-04-12T08:48:29.673Z,7.00
2023-04-12T08:50:58.082Z,12.25
2023-04-12T08:53:24.934Z,11.90
2023-04-12T08:55:51.950Z,11.65
2023-04-12T08:58:19.887Z,12.48
2023-04-12T09:00:47.332Z,12.43
2023-04-12T09:03:14.349Z,9.02
2023-04-12T09:05:41.575Z,14.00
2023-04-12T09:08:08.260Z,13.23
2023-04-12T09:10:37.056Z,9.82
2023-04-12T09:13:06.994Z,12.20
2023-04-12T09:15:34.418Z,11.02
2023-04-12T09:18:10.460Z,10.52
2023-04-12T09:20:38.135Z,11.20
2023-04-12T09:23:22.365Z,11.30
2023-04-12T09:25:52.174Z,13.25
2023-04-12T09:28:20.317Z,9.80
2023-04-12T09:30:53.541Z,12.02
2023-04-12T09:33:23.182Z,14.05
2023-04-12T09:35:49.955Z,19.80
2023-04-12T09:38:16.883Z,13.95
2023-04-12T09:40:43.610Z,20.23
2023-04-12T09:43:10.639Z,21.33
2023-04-12T09:45:40.787Z,15.40
2023-04-12T09:48:08.007Z,12.18
2023-04-12T09:50:35.127Z,12.18
2023-04-12T09:53:03.695Z,15.43
2023-04-12T09:55:34.289Z,15.05
2023-04-12T09:58:04.842Z,16.15
2023-04-12T10:00:34.122Z,10.55
2023-04-12T10:03:01.857Z,16.40
2023-04-12T10:05:29.929Z,16.77
2023-04-12T10:08:00.340Z,14.48
2023-04-12T10:10:30.654Z,13.13
2023-04-12T10:12:57.919Z,14.38
2023-04-12T10:15:25.426Z,10.43
2023-04-12T10:17:57.521Z,17.08
2023-04-12T10:20:28.253Z,20.25
2023-04-12T10:22:56.712Z,11.13
2023-04-12T10:25:27.376Z,25.63
2023-04-12T10:27:54.149Z,19.38
2023-04-12T10:30:21.194Z,15.88
2023-04-12T10:32:49.548Z,17.65
2023-04-12T10:35:16.255Z,16.85
2023-04-12T10:37:57.761Z,17.63
2023-04-12T10:40:24.467Z,18.65
2023-04-12T10:43:22.904Z,15.75
2023-04-12T10:45:49.971Z,11.43
2023-04-12T10:48:36.559Z,19.58
2023-04-12T10:51:26.603Z,14.50
2023-04-12T10:54:24.308Z,13.93
2023-04-12T10:56:51.167Z,16.70
2023-04-12T10:59:54.330Z,12.93
2023-04-12T11:02:21.460Z,19.10
2023-04-12T11:05:04.938Z,17.30
2023-04-12T11:07:53.341Z,23.05
2023-04-12T11:10:39.059Z,20.65
2023-04-12T11:13:09.099Z,15.98
2023-04-12T11:15:38.695Z,15.80
2023-04-12T11:18:14.262Z,11.02
2023-04-12T11:20:41.343Z,15.45
2023-04-12T11:23:09.953Z,14.07
2023-04-12T11:25:38.752Z,13.65
2023-04-12T11:28:14.080Z,11.68
2023-04-12T11:30:55.972Z,10.93
2023-04-12T11:33:38.936Z,13.18
2023-04-12T11:36:07.176Z,16.65
2023-04-12T11:38:35.720Z,17.70
2023-04-12T11:41:02.722Z,19.83
2023-04-12T11:43:29.607Z,17.52
2023-04-12T11:45:58.583Z,14.00
2023-04-12T11:48:29.071Z,11.57
2023-04-12T11:51:07.810Z,9.50
2023-04-12T11:53:37.356Z,16.17
2023-04-12T11:56:04.155Z,8.45
2023-04-12T11:58:30.848Z,7.75
2023-04-12T12:00:58.440Z,10.23
2023-04-12T12:03:25.550Z,9.45
2023-04-12T12:05:52.500Z,7.82
2023-04-12T12:08:19.761Z,6.25
2023-04-12T12:13:18.919Z,5.75
2023-04-12T12:15:46.095Z,4.60
2023-04-12T12:18:13.191Z,6.63
2023-04-12T12:20:48.785Z,8.70
2023-04-12T12:23:28.797Z,9.27
2023-04-12T12:26:10.040Z,11.57
2023-04-12T12:28:52.097Z,14.70
2023-04-12T12:31:21.427Z,6.70
2023-04-12T12:33:48.705Z,5.10
2023-04-12T12:36:20.754Z,5.32
2023-04-12T12:38:49.111Z,6.00
2023-04-12T12:41:17.360Z,5.00
2023-04-12T12:43:48.405Z,3.88
2023-04-12T12:46:15.449Z,4.60
2023-04-12T12:48:42.402Z,4.65
2023-04-12T12:51:13.014Z,2.95
2023-04-12T12:53:40.337Z,7.03
2023-04-12T12:56:11.175Z,5.18
2023-04-12T12:58:40.772Z,2.38
2023-04-12T13:01:09.230Z,3.47
2023-04-12T13:03:36.217Z,3.67
2023-04-12T13:06:03.097Z,2.83
2023-04-12T13:08:35.262Z,3.17
2023-04-12T13:11:01.946Z,3.07
2023-04-12T13:13:28.679Z,1.98
2023-04-12T13:15:56.035Z,4.97
2023-04-12T13:18:22.789Z,67.80
2023-04-12T13:20:49.470Z,75.50
2023-04-12T13:23:16.154Z,50.40
2023-04-12T13:25:43.098Z,33.17
2023-04-12T13:28:09.945Z,18.20
2023-04-12T13:30:36.754Z,8.98
2023-04-12T13:33:03.942Z,6.63
2023-04-12T13:35:30.891Z,3.58
2023-04-12T13:37:57.540Z,4.32
2023-04-12T13:40:24.282Z,3.72
2023-04-12T13:42:51.149Z,2.80
2023-04-12T13:45:17.873Z,4.78
2023-04-12T13:47:44.670Z,5.13
2023-04-12T13:50:11.499Z,4.38
2023-04-12T13:52:39.021Z,12.45
2023-04-12T13:55:08.222Z,9.45
2023-04-12T13:57:37.890Z,23.38
2023-04-12T14:00:05.260Z,10.43
2023-04-12T14:02:32.402Z,17.70
2023-04-12T14:05:00.143Z,9.27
2023-04-12T14:07:29.269Z,11.55
2023-04-12T14:12:24.417Z,14.02
2023-04-12T14:17:19.446Z,8.10
2023-04-12T14:19:46.188Z,10.05
2023-04-12T14:22:12.943Z,4.32
2023-04-12T14:24:40.051Z,6.80
2023-04-12T14:27:07.766Z,10.18
2023-04-12T14:29:34.490Z,10.15
2023-04-12T14:32:01.229Z,5.78
2023-04-12T14:34:27.887Z,3.92
2023-04-12T14:36:56.257Z,3.92
2023-04-12T14:39:24.284Z,6.15
2023-04-12T14:41:50.985Z,4.13
2023-04-12T14:44:20.002Z,7.20
2023-04-12T14:46:47.227Z,6.95
2023-04-12T14:49:14.301Z,5.88
2023-04-12T14:51:41.111Z,8.38
2023-04-12T14:54:07.747Z,11.82
2023-04-12T14:56:42.080Z,5.38
2023-04-12T14:59:11.798Z,4.75
2023-04-12T15:01:39.343Z,6.65
2023-04-12T15:04:07.058Z,4.45
2023-04-12T15:06:35.209Z,5.90
2023-04-12T15:09:06.485Z,3.92
2023-04-12T15:11:35.559Z,2.75
2023-04-12T15:14:07.290Z,3.13
2023-04-12T15:16:35.058Z,6.50
2023-04-12T15:19:07.309Z,2.55
2023-04-12T15:21:40.479Z,4.95
2023-04-12T15:24:07.159Z,3.17
2023-04-12T15:26:35.075Z,2.80
2023-04-12T15:29:02.004Z,3.30
2023-04-12T15:31:28.705Z,2.97
2023-04-12T15:33:57.925Z,5.60
2023-04-12T15:36:34.006Z,5.22
2023-04-12T15:39:01.550Z,4.32
2023-04-12T15:41:33.726Z,5.25
2023-04-12T15:44:00.582Z,3.72
2023-04-12T15:46:27.581Z,3.10
2023-04-12T15:48:54.403Z,4.63
2023-04-12T15:51:21.441Z,3.30
2023-04-12T15:53:48.358Z,3.47
2023-04-12T15:56:19.912Z,3.65
2023-04-12T15:58:52.610Z,3.17
2023-04-12T16:01:19.908Z,4.03
2023-04-12T16:03:50.840Z,5.68
2023-04-12T16:06:21.943Z,6.75
2023-04-12T16:08:53.431Z,3.60
2023-04-12T16:11:23.368Z,4.10
2023-04-12T16:13:50.720Z,2.25
2023-04-12T16:16:18.626Z,3.25
2023-04-12T16:18:46.131Z,5.55
2023-04-12T16:21:16.436Z,3.83
2023-04-12T16:23:44.359Z,4.70
2023-04-12T16:26:12.376Z,4.78
2023-04-12T16:28:39.150Z,2.78
2023-04-12T16:31:06.282Z,5.05
2023-04-12T16:33:33.267Z,4.90
2023-04-12T16:36:01.885Z,3.28
2023-04-12T16:38:28.658Z,5.40
2023-04-12T16:40:55.628Z,2.15
2023-04-12T16:43:22.327Z,1.98
2023-04-12T16:45:49.290Z,3.58
2023-04-12T16:48:16.041Z,2.25
2023-04-12T16:50:47.334Z,5.97
2023-04-12T16:53:14.902Z,4.75
2023-04-12T16:55:47.800Z,4.03
2023-04-12T16:58:15.280Z,3.55
2023-04-12T17:00:43.199Z,4.55
2023-04-12T17:03:12.461Z,5.78
2023-04-12T17:05:40.667Z,6.20
2023-04-12T17:08:09.743Z,2.45
2023-04-12T17:10:36.945Z,5.05
2023-04-12T17:13:04.394Z,6.32
2023-04-12T17:15:31.426Z,2.15
2023-04-12T17:18:16.443Z,4.00
2023-04-12T17:20:43.413Z,8.60
2023-04-12T17:23:10.503Z,5.68
2023-04-12T17:25:37.572Z,4.60
2023-04-12T17:28:04.593Z,6.13
2023-04-12T17:30:31.684Z,28.70
2023-04-12T17:33:00.984Z,15.23
2023-04-12T17:35:28.056Z,15.43
2023-04-12T17:37:54.982Z,15.13
2023-04-12T17:40:22.074Z,9.73
2023-04-12T17:42:48.895Z,8.25
2023-04-12T17:45:16.109Z,9.73
2023-04-12T17:47:43.178Z,7.80
2023-04-12T17:50:11.208Z,8.25
2023-04-12T17:52:38.371Z,11.60
2023-04-12T17:55:07.311Z,11.45
2023-04-12T17:57:34.072Z,14.82
2023-04-12T18:00:01.086Z,14.70
2023-04-12T18:02:28.106Z,10.23
2023-04-12T18:04:55.309Z,11.40
2023-04-12T18:07:22.937Z,6.75
2023-04-12T18:09:50.693Z,13.20
2023-04-12T18:12:17.559Z,15.02
2023-04-12T18:14:44.898Z,9.70
2023-04-12T18:17:12.838Z,12.88
2023-04-12T18:19:39.931Z,9.55
2023-04-12T18:22:06.813Z,17.40
2023-04-12T18:24:33.610Z,14.73
2023-04-12T18:27:01.505Z,10.13
2023-04-12T18:29:28.445Z,15.73
2023-04-12T18:31:55.604Z,15.18
2023-04-12T18:34:22.953Z,11.45
2023-04-12T18:36:49.869Z,12.85
2023-04-12T18:39:16.751Z,7.57
2023-04-12T18:41:43.473Z,8.38
2023-04-12T18:44:11.916Z,6.65
2023-04-12T18:46:41.717Z,5.43
2023-04-12T18:49:11.886Z,4.07
2023-04-12T18:51:39.197Z,3.67
2023-04-12T18:54:11.130Z,3.38
2023-04-12T18:56:40.184Z,4.75
2023-04-12T18:59:07.023Z,8.18
2023-04-12T19:01:36.448Z,8.02
2023-04-12T19:04:05.098Z,5.38
2023-04-12T19:06:32.364Z,6.97
2023-04-12T19:08:59.132Z,6.65
2023-04-12T19:11:26.656Z,4.38
2023-04-12T19:13:55.811Z,10.98
2023-04-12T19:16:23.047Z,16.20
2023-04-12T19:18:50.528Z,10.93
2023-04-12T19:21:17.311Z,5.63
2023-04-12T19:23:44.374Z,2.97
2023-04-12T19:26:11.431Z,5.25
2023-04-12T19:28:38.331Z,9.00
2023-04-12T19:31:10.212Z,4.88
2023-04-12T19:33:37.440Z,5.77
2023-04-12T19:36:04.610Z,4.50
2023-04-12T19:38:31.741Z,3.30
2023-04-12T19:40:58.609Z,6.10
2023-04-12T19:43:25.893Z,4.82
2023-04-12T19:45:53.338Z,3.33
2023-04-12T19:48:20.258Z,4.93
2023-04-12T19:50:49.051Z,3.65
2023-04-12T19:53:18.957Z,5.55
2023-04-12T19:55:45.847Z,2.80
2023-04-12T19:58:13.616Z,3.17
2023-04-12T20:00:41.375Z,2.72
2023-04-12T20:03:09.333Z,3.92
2023-04-12T20:05:36.609Z,15.35
2023-04-12T20:08:03.803Z,4.28
2023-04-12T20:10:30.651Z,6.20
2023-04-12T20:12:57.488Z,2.85
2023-04-12T20:15:24.273Z,3.63
2023-04-12T20:17:52.220Z,7.50
2023-04-12T20:20:19.581Z,2.85
2023-04-12T20:22:47.786Z,11.25
2023-04-12T20:25:15.217Z,3.08
2023-04-12T20:27:43.734Z,5.13
2023-04-12T20:30:11.396Z,6.22
2023-04-12T20:32:39.618Z,6.75
2023-04-12T20:35:06.822Z,9.18
2023-04-12T20:37:33.854Z,4.00
2023-04-12T20:40:00.991Z,14.18
2023-04-12T20:42:28.211Z,6.45
2023-04-12T20:44:55.031Z,6.70
2023-04-12T20:47:23.469Z,4.45
2023-04-12T20:49:50.700Z,7.03
2023-04-12T20:52:18.714Z,5.22
2023-04-12T20:54:45.785Z,4.70
2023-04-12T20:57:14.025Z,4.38
2023-04-12T20:59:41.041Z,2.42
2023-04-12T21:02:09.273Z,6.85
2023-04-12T21:04:36.595Z,4.53
2023-04-12T21:07:03.548Z,4.07
2023-04-12T21:09:30.605Z,5.88
2023-04-12T21:11:57.931Z,3.55
2023-04-12T21:14:25.144Z,2.83
2023-04-12T21:16:52.548Z,7.55
2023-04-12T21:19:19.466Z,4.43
2023-04-12T21:21:46.904Z,9.30
2023-04-12T21:24:17.224Z,7.93
2023-04-12T21:26:44.778Z,3.38
2023-04-12T21:29:11.768Z,7.13
2023-04-12T21:31:41.532Z,3.90
2023-04-12T21:34:09.219Z,6.90
2023-04-12T21:36:36.264Z,4.07
2023-04-12T21:39:04.179Z,5.13
2023-04-12T21:41:30.955Z,1.17
2023-04-12T21:43:58.059Z,1.60
2023-04-12T21:46:28.824Z,4.00
2023-04-12T21:48:55.663Z,3.08
2023-04-12T21:51:24.508Z,2.53
2023-04-12T21:53:51.888Z,1.63
2023-04-12T21:56:18.853Z,2.40
2023-04-12T21:58:45.832Z,2.28
2023-04-12T22:01:13.946Z,2.90
2023-04-12T22:03:42.055Z,2.25
2023-04-12T22:06:09.450Z,2.97
2023-04-12T22:08:36.240Z,1.67
2023-04-12T22:11:02.942Z,4.38
2023-04-12T22:13:30.980Z,2.60
2023-04-12T22:16:00.608Z,1.85
2023-04-12T22:18:27.544Z,3.35
2023-04-12T22:20:55.294Z,1.30
2023-04-12T22:23:21.967Z,3.55
2023-04-12T22:25:49.514Z,2.33
2023-04-12T22:28:17.072Z,3.72
2023-04-12T22:30:43.938Z,4.45
2023-04-12T22:33:10.818Z,4.53
2023-04-12T22:35:37.777Z,1.80
2023-04-12T22:38:04.902Z,4.25
2023-04-12T22:40:31.694Z,1.80
2023-04-12T22:42:58.479Z,6.07
2023-04-12T22:45:25.270Z,4.30
2023-04-12T22:47:52.864Z,2.50
2023-04-12T22:50:20.047Z,4.55
2023-04-12T22:52:49.732Z,2.03
2023-04-12T22:55:18.153Z,3.00
2023-04-12T22:57:45.105Z,2.15
2023-04-12T23:00:14.963Z,3.80
2023-04-12T23:02:43.955Z,4.28
2023-04-12T23:05:12.036Z,2.58
2023-04-12T23:07:41.188Z,2.20
2023-04-12T23:10:08.814Z,2.28
2023-04-12T23:12:37.301Z,1.10
2023-04-12T23:15:06.083Z,2.78
2023-04-12T23:17:33.704Z,3.78
2023-04-12T23:20:01.882Z,2.22
2023-04-12T23:22:55.055Z,2.95
2023-04-12T23:25:39.044Z,3.65
2023-04-12T23:28:12.540Z,4.05
2023-04-12T23:31:09.814Z,3.63
2023-04-12T23:33:38.633Z,2.67
2023-04-12T23:36:05.738Z,4.60
2023-04-12T23:38:38.534Z,3.38
2023-04-12T23:41:07.029Z,6.57
2023-04-12T23:43:34.650Z,1.83
2023-04-12T23:46:02.171Z,2.50
2023-04-12T23:48:29.448Z,1.85
2023-04-12T23:50:56.231Z,2.03
2023-04-12T23:53:23.096Z,1.60
2023-04-12T23:55:52.334Z,1.85
2023-04-12T23:58:19.751Z,2.35
